createdAt,value
2019-03-13T00:01:12.081Z,100023.23
2019-03-13T00:03:43.343Z,100018.91
2019-03-13T00:06:13.879Z,100012.53
2019-03-13T00:08:44.439Z,100019.34
2019-03-13T00:11:14.779Z,100003.81
2019-03-13T00:13:45.137Z,99985.55
2019-03-13T00:16:15.638Z,99983.93
2019-03-13T00:18:45.983Z,99981.80
2019-03-13T00:21:16.422Z,99974.42
2019-03-13T00:23:46.961Z,99973.63
2019-03-13T00:26:17.501Z,99961.84
2019-03-13T00:28:47.849Z,99959.70
2019-03-13T00:31:18.283Z,99963.33
2019-03-13T00:33:48.630Z,99966.33
2019-03-13T00:36:19.267Z,99967.75
2019-03-13T00:38:51.076Z,99953.82
2019-03-13T00:41:21.611Z,99942.20
2019-03-13T00:43:52.159Z,99940.07
2019-03-13T00:46:22.601Z,99930.66
2019-03-13T00:48:52.945Z,99928.62
2019-03-13T00:51:23.284Z,99921.72
2019-03-13T00:53:53.682Z,99916.72
2019-03-13T00:56:23.982Z,99910.23
2019-03-13T00:58:54.425Z,99901.22
2019-03-13T01:01:26.342Z,99905.05
2019-03-13T01:04:04.497Z,99909.20
2019-03-13T01:06:36.481Z,99895.63
2019-03-13T01:09:07.392Z,99886.87
2019-03-13T01:11:37.661Z,99881.64
2019-03-13T01:14:08.006Z,99870.57
2019-03-13T01:16:38.276Z,99863.20
2019-03-13T01:19:08.725Z,99860.76
2019-03-13T01:21:39.064Z,99857.34
2019-03-13T01:24:09.336Z,99851.59
2019-03-13T01:26:39.678Z,99846.05
2019-03-13T01:29:09.947Z,99830.16
2019-03-13T01:31:56.877Z,99818.20
2019-03-13T01:34:31.787Z,99815.69
2019-03-13T01:37:02.052Z,99810.52
2019-03-13T01:39:32.393Z,99800.94
2019-03-13T01:42:02.666Z,99796.46
2019-03-13T01:44:33.116Z,99780.91
2019-03-13T01:47:03.390Z,99788.59
2019-03-13T01:49:33.664Z,99774.30
2019-03-13T01:52:04.000Z,99773.95
2019-03-13T01:54:34.273Z,99761.84
2019-03-13T01:57:04.536Z,99762.08
2019-03-13T01:59:34.806Z,99754.22
2019-03-13T02:02:05.079Z,99749.45
2019-03-13T02:04:35.415Z,99738.98
2019-03-13T02:07:05.750Z,99735.56
2019-03-13T02:09:36.028Z,99733.11
2019-03-13T02:12:07.278Z,99729.72
2019-03-13T02:14:37.553Z,99719.82
2019-03-13T02:17:07.821Z,99709.02
2019-03-13T02:19:38.092Z,99704.91
2019-03-13T02:22:08.535Z,99705.73
2019-03-13T02:24:39.079Z,99696.21
2019-03-13T02:27:09.410Z,99695.83
2019-03-13T02:29:39.755Z,99682.14
2019-03-13T02:32:11.177Z,99688.86
2019-03-13T02:34:41.529Z,99681.80
2019-03-13T02:37:11.790Z,99678.79
2019-03-13T02:39:42.333Z,99673.45
2019-03-13T02:42:12.856Z,99677.38
2019-03-13T02:44:43.112Z,99661.82
2019-03-13T02:47:13.652Z,99667.06
2019-03-13T02:49:43.922Z,99659.36
2019-03-13T02:52:14.190Z,99653.55
2019-03-13T02:54:44.462Z,99652.33
2019-03-13T02:57:14.802Z,99652.17
2019-03-13T02:59:45.132Z,99647.72
2019-03-13T03:02:17.049Z,99650.86
2019-03-13T03:04:48.171Z,99661.41
2019-03-13T03:07:18.445Z,99658.37
2019-03-13T03:09:48.709Z,99654.59
2019-03-13T03:12:19.141Z,99649.03
2019-03-13T03:15:03.073Z,99659.58
2019-03-13T03:17:33.802Z,99650.41
2019-03-13T03:20:06.907Z,99646.16
2019-03-13T03:22:37.165Z,99646.70
2019-03-13T03:25:10.337Z,99649.00
2019-03-13T03:27:40.667Z,99640.66
2019-03-13T03:30:22.457Z,99645.22
2019-03-13T03:32:52.841Z,99650.47
2019-03-13T03:35:23.145Z,99643.50
2019-03-13T03:37:53.392Z,99644.33
2019-03-13T03:40:23.863Z,99637.36
2019-03-13T03:42:54.376Z,99627.34
2019-03-13T03:45:24.669Z,99635.05
2019-03-13T03:47:54.904Z,99628.62
2019-03-13T03:50:25.151Z,99635.43
2019-03-13T03:52:55.462Z,99625.08
2019-03-13T03:55:25.711Z,99625.72
2019-03-13T03:57:55.945Z,99624.20
2019-03-13T04:00:26.195Z,99622.22
2019-03-13T04:02:56.501Z,99616.17
2019-03-13T04:05:27.673Z,99604.91
2019-03-13T04:07:57.893Z,99601.91
2019-03-13T04:10:28.129Z,99602.38
2019-03-13T04:12:58.365Z,99606.31
2019-03-13T04:15:28.776Z,99606.11
2019-03-13T04:17:59.284Z,99605.30
2019-03-13T04:20:29.537Z,99599.64
2019-03-13T04:22:59.765Z,99603.64
2019-03-13T04:25:30.770Z,99609.52
2019-03-13T04:28:01.078Z,99605.73
2019-03-13T04:30:31.404Z,99612.17
2019-03-13T04:33:02.885Z,99603.20
2019-03-13T04:35:33.149Z,99607.02
2019-03-13T04:38:03.382Z,99605.80
2019-03-13T04:40:33.805Z,99616.44
2019-03-13T04:43:04.109Z,99614.44
2019-03-13T04:45:34.434Z,99618.52
2019-03-13T04:48:05.044Z,99620.04
2019-03-13T04:50:35.372Z,99622.55
2019-03-13T04:53:05.609Z,99626.13
2019-03-13T04:55:36.036Z,99627.84
2019-03-13T04:58:06.286Z,99639.48
2019-03-13T05:00:36.615Z,99628.29
2019-03-13T05:03:08.347Z,99629.52
2019-03-13T05:05:43.828Z,99630.08
2019-03-13T05:08:20.555Z,99631.33
2019-03-13T05:10:50.801Z,99632.28
2019-03-13T05:13:21.093Z,99635.19
2019-03-13T05:15:52.288Z,99625.10
2019-03-13T05:18:22.912Z,99621.64
2019-03-13T05:20:54.331Z,99624.62
2019-03-13T05:23:24.647Z,99627.72
2019-03-13T05:25:54.968Z,99634.61
2019-03-13T05:28:25.214Z,99644.73
2019-03-13T05:30:55.724Z,99641.33
2019-03-13T05:33:25.966Z,99655.56
2019-03-13T05:35:56.217Z,99666.89
2019-03-13T05:38:26.477Z,99677.39
2019-03-13T05:40:57.064Z,99680.83
2019-03-13T05:43:27.381Z,99678.11
2019-03-13T05:45:57.695Z,99682.81
2019-03-13T05:48:28.204Z,99692.80
2019-03-13T05:50:58.522Z,99697.09
2019-03-13T05:53:29.103Z,99704.81
2019-03-13T05:55:59.349Z,99717.84
2019-03-13T05:58:29.593Z,99711.13
2019-03-13T06:00:59.897Z,99712.80
2019-03-13T06:03:30.227Z,99706.02
2019-03-13T06:06:01.599Z,99704.41
2019-03-13T06:08:33.085Z,99696.80
2019-03-13T06:11:03.616Z,99699.42
2019-03-13T06:13:33.957Z,99705.25
2019-03-13T06:16:04.266Z,99702.30
2019-03-13T06:18:34.559Z,99704.73
2019-03-13T06:21:05.007Z,99713.59
2019-03-13T06:23:35.323Z,99713.43
2019-03-13T06:26:05.644Z,99717.52
2019-03-13T06:28:35.876Z,99726.28
2019-03-13T06:31:06.180Z,99726.70
2019-03-13T06:33:37.492Z,99731.31
2019-03-13T06:36:08.007Z,99736.14
2019-03-13T06:38:38.323Z,99729.84
2019-03-13T06:41:08.661Z,99733.94
2019-03-13T06:43:38.886Z,99730.12
2019-03-13T06:46:09.126Z,99736.94
2019-03-13T06:48:39.370Z,99740.97
2019-03-13T06:51:09.681Z,99741.97
2019-03-13T06:53:40.006Z,99743.12
2019-03-13T06:56:10.336Z,99756.23
2019-03-13T06:58:45.124Z,99756.08
2019-03-13T07:01:22.899Z,99760.01
2019-03-13T07:04:09.822Z,99759.66
2019-03-13T07:06:48.737Z,99762.12
2019-03-13T07:09:20.695Z,99765.25
2019-03-13T07:11:52.585Z,99762.79
2019-03-13T07:14:24.479Z,99763.48
2019-03-13T07:16:56.372Z,99757.98
2019-03-13T07:19:31.327Z,99775.98
2019-03-13T07:22:19.230Z,99772.52
2019-03-13T07:24:53.867Z,99782.28
2019-03-13T07:27:28.521Z,99784.91
2019-03-13T07:30:00.491Z,99791.16
2019-03-13T07:32:35.574Z,99792.63
2019-03-13T07:35:14.548Z,99789.11
2019-03-13T07:37:53.877Z,99786.95
2019-03-13T07:40:28.670Z,99808.02
2019-03-13T07:43:09.364Z,99804.97
2019-03-13T07:45:41.325Z,99812.27
2019-03-13T07:48:13.281Z,99802.75
2019-03-13T07:50:51.222Z,99808.93
2019-03-13T07:53:32.039Z,99806.81
2019-03-13T07:56:03.999Z,99813.73
2019-03-13T07:58:54.081Z,99819.92
2019-03-13T08:01:37.922Z,99815.92
2019-03-13T08:04:09.886Z,99816.41
2019-03-13T08:06:44.613Z,99803.13
2019-03-13T08:09:16.568Z,99826.03
2019-03-13T08:11:54.298Z,99819.72
2019-03-13T08:14:44.180Z,99830.86
2019-03-13T08:17:16.353Z,99835.42
2019-03-13T08:19:50.989Z,99832.41
2019-03-13T08:22:28.602Z,99837.50
2019-03-13T08:25:00.559Z,99850.61
2019-03-13T08:27:35.592Z,99851.56
2019-03-13T08:30:20.515Z,99853.20
2019-03-13T08:32:52.668Z,99863.80
2019-03-13T08:35:39.819Z,99864.52
2019-03-13T08:38:28.228Z,99867.98
2019-03-13T08:41:03.110Z,99870.07
2019-03-13T08:43:47.281Z,99871.47
2019-03-13T08:46:19.240Z,99863.53
2019-03-13T08:48:51.191Z,99867.41
2019-03-13T08:51:29.936Z,99874.50
2019-03-13T08:54:36.061Z,99881.78
2019-03-13T08:57:09.451Z,99885.02
2019-03-13T08:59:41.441Z,99886.13
2019-03-13T09:02:16.251Z,99889.23
2019-03-13T09:04:48.225Z,99891.14
2019-03-13T09:07:22.965Z,99890.20
2019-03-13T09:10:11.342Z,99887.94
2019-03-13T09:12:45.900Z,99898.98
2019-03-13T09:15:17.864Z,99903.81
2019-03-13T09:17:49.747Z,99913.13
2019-03-13T09:20:30.886Z,99908.91
2019-03-13T09:23:05.527Z,99914.33
2019-03-13T09:25:37.502Z,99896.23
2019-03-13T09:28:15.105Z,99904.52
2019-03-13T09:31:03.101Z,99913.11
2019-03-13T09:33:52.932Z,99917.95
2019-03-13T09:36:24.880Z,99932.63
2019-03-13T09:39:02.486Z,99929.29
2019-03-13T09:41:48.135Z,99930.70
2019-03-13T09:44:33.016Z,99940.19
2019-03-13T09:47:16.878Z,99935.31
2019-03-13T09:49:54.938Z,99941.86
2019-03-13T09:52:43.280Z,99948.36
2019-03-13T09:55:15.243Z,99948.40
2019-03-13T09:57:47.122Z,99942.45
2019-03-13T10:00:35.108Z,99951.83
2019-03-13T10:03:18.821Z,99952.66
2019-03-13T10:05:50.781Z,99949.28
2019-03-13T10:08:31.415Z,99947.61
2019-03-13T10:11:06.062Z,99939.39
2019-03-13T10:13:38.409Z,99935.56
2019-03-13T10:16:13.337Z,99947.27
2019-03-13T10:18:58.161Z,99927.44
2019-03-13T10:21:48.311Z,99938.06
2019-03-13T10:24:20.483Z,99928.56
2019-03-13T10:26:52.828Z,99935.84
2019-03-13T10:29:27.587Z,99934.09
2019-03-13T10:32:15.773Z,99928.32
2019-03-13T10:34:53.618Z,99936.84
2019-03-13T10:37:34.703Z,99939.42
2019-03-13T10:40:25.994Z,99940.53
2019-03-13T10:42:58.032Z,99948.78
2019-03-13T10:45:30.000Z,99945.14
2019-03-13T10:48:04.654Z,99944.37
2019-03-13T10:50:36.880Z,99943.09
2019-03-13T10:53:25.228Z,99929.22
2019-03-13T10:56:13.299Z,99923.73
2019-03-13T10:58:45.269Z,99939.52
2019-03-13T11:01:19.921Z,99935.38
2019-03-13T11:04:03.821Z,99941.13
2019-03-13T11:06:54.097Z,99935.73
2019-03-13T11:09:18.491Z,99934.41
2019-03-13T11:12:02.178Z,99936.20
2019-03-13T11:14:40.860Z,99933.98
2019-03-13T11:17:21.968Z,99941.05
2019-03-13T11:19:53.880Z,99934.86
2019-03-13T11:22:26.036Z,99938.80
2019-03-13T11:25:10.055Z,99940.45
2019-03-13T11:27:42.015Z,99943.59
2019-03-13T11:30:16.146Z,99945.26
2019-03-13T11:32:48.096Z,99940.42
2019-03-13T11:35:19.993Z,99931.30
2019-03-13T11:37:55.036Z,99935.27
2019-03-13T11:40:27.943Z,99930.08
2019-03-13T11:43:09.345Z,99926.05
2019-03-13T11:45:56.131Z,99923.11
2019-03-13T11:48:33.846Z,99914.66
2019-03-13T11:51:23.702Z,99927.41
2019-03-13T11:54:01.573Z,99911.59
2019-03-13T11:56:36.136Z,99901.08
2019-03-13T11:59:25.843Z,99893.27
2019-03-13T12:01:57.728Z,99900.17
2019-03-13T12:04:29.698Z,99895.27
2019-03-13T12:07:13.963Z,99901.13
2019-03-13T12:10:03.850Z,99886.66
2019-03-13T12:12:44.582Z,99887.16
2019-03-13T12:15:22.486Z,99877.97
2019-03-13T12:17:57.318Z,99881.43
2019-03-13T12:20:29.372Z,99889.73
2019-03-13T12:23:07.462Z,99883.98
2019-03-13T12:25:39.357Z,99884.62
2019-03-13T12:28:29.007Z,99885.72
2019-03-13T12:31:03.950Z,99880.69
2019-03-13T12:33:42.033Z,99877.11
2019-03-13T12:36:31.711Z,99885.70
2019-03-13T12:39:09.632Z,99880.40
2019-03-13T12:41:50.930Z,99880.40
2019-03-13T12:44:25.511Z,99875.89
2019-03-13T12:47:06.206Z,99870.00
2019-03-13T12:49:41.096Z,99875.44
2019-03-13T12:52:13.069Z,99864.42
2019-03-13T12:54:47.721Z,99867.73
2019-03-13T12:57:23.565Z,99868.59
2019-03-13T12:59:55.549Z,99867.27
2019-03-13T13:02:37.416Z,99874.11
2019-03-13T13:05:17.052Z,99874.94
2019-03-13T13:07:51.896Z,99866.73
2019-03-13T13:10:23.984Z,99865.19
2019-03-13T13:13:01.860Z,99877.30
2019-03-13T13:15:34.032Z,99863.00
2019-03-13T13:18:05.989Z,99869.81
2019-03-13T13:20:37.512Z,99853.25
2019-03-13T13:23:08.066Z,99851.59
2019-03-13T13:25:38.428Z,99848.48
2019-03-13T13:28:08.754Z,99847.64
2019-03-13T13:30:39.268Z,99838.64
2019-03-13T13:33:09.841Z,99836.62
2019-03-13T13:35:40.111Z,99842.78
2019-03-13T13:38:10.584Z,99832.84
2019-03-13T13:40:42.199Z,99828.06
2019-03-13T13:43:12.562Z,99830.37
2019-03-13T13:45:45.561Z,99832.33
2019-03-13T13:48:15.888Z,99830.66
2019-03-13T13:50:46.140Z,99824.66
2019-03-13T13:53:16.774Z,99831.56
2019-03-13T13:55:47.223Z,99830.98
2019-03-13T13:58:17.580Z,99827.36
2019-03-13T14:00:49.024Z,99833.39
2019-03-13T14:03:19.453Z,99812.91
2019-03-13T14:05:51.183Z,99829.24
2019-03-13T14:08:21.445Z,99828.28
2019-03-13T14:10:51.704Z,99836.56
2019-03-13T14:13:22.041Z,99831.32
2019-03-13T14:15:54.005Z,99833.40
2019-03-13T14:18:24.274Z,99833.83
2019-03-13T14:20:55.244Z,99830.42
2019-03-13T14:23:26.831Z,99828.17
2019-03-13T14:25:59.155Z,99820.17
2019-03-13T14:28:31.480Z,99823.09
2019-03-13T14:31:05.075Z,99822.36
2019-03-13T14:33:36.870Z,99827.13
2019-03-13T14:36:09.550Z,99823.42
2019-03-13T14:38:40.974Z,99831.97
2019-03-13T14:41:11.972Z,99823.31
2019-03-13T14:43:42.496Z,99821.58
2019-03-13T14:46:12.860Z,99815.68
2019-03-13T14:48:45.983Z,99818.96
2019-03-13T14:51:18.436Z,99820.69
2019-03-13T14:53:48.917Z,99817.59
2019-03-13T14:56:19.655Z,99817.94
2019-03-13T14:58:50.287Z,99815.75
2019-03-13T15:01:24.259Z,99823.70
2019-03-13T15:03:56.239Z,99816.41
2019-03-13T15:06:26.692Z,99826.31
2019-03-13T15:08:58.420Z,99814.14
2019-03-13T15:11:30.758Z,99815.65
2019-03-13T15:14:02.416Z,99813.98
2019-03-13T15:16:32.751Z,99820.42
2019-03-13T15:19:03.306Z,99816.33
2019-03-13T15:21:33.807Z,99819.88
2019-03-13T15:24:04.349Z,99816.16
2019-03-13T15:26:35.167Z,99815.66
2019-03-13T15:29:06.771Z,99816.52
2019-03-13T15:31:37.186Z,99811.50
2019-03-13T15:34:09.662Z,99811.24
2019-03-13T15:36:41.558Z,99810.16
2019-03-13T15:39:11.909Z,99813.89
2019-03-13T15:41:42.800Z,99811.24
2019-03-13T15:44:13.182Z,99811.34
2019-03-13T15:46:44.630Z,99807.19
2019-03-13T15:49:16.375Z,99810.76
2019-03-13T15:51:48.555Z,99805.30
2019-03-13T15:54:19.039Z,99822.52
2019-03-13T15:56:49.526Z,99821.43
2019-03-13T15:59:20.167Z,99809.73
2019-03-13T16:01:50.557Z,99810.84
2019-03-13T16:04:22.666Z,99819.09
2019-03-13T16:06:53.183Z,99812.45
2019-03-13T16:09:23.720Z,99801.67
2019-03-13T16:11:54.325Z,99809.14
2019-03-13T16:14:24.913Z,99808.56
2019-03-13T16:16:55.485Z,99808.72
2019-03-13T16:19:30.658Z,99804.14
2019-03-13T16:22:04.993Z,99810.00
2019-03-13T16:24:37.082Z,99803.25
2019-03-13T16:27:07.606Z,99797.83
2019-03-13T16:29:38.202Z,99797.64
2019-03-13T16:32:12.666Z,99799.28
2019-03-13T16:34:43.402Z,99797.86
2019-03-13T16:37:14.040Z,99796.07
2019-03-13T16:39:45.710Z,99796.92
2019-03-13T16:42:18.396Z,99799.45
2019-03-13T16:44:49.859Z,99800.45
2019-03-13T16:47:20.391Z,99801.61
2019-03-13T16:49:52.746Z,99796.65
2019-03-13T16:52:24.208Z,99801.93
2019-03-13T16:54:54.795Z,99795.99
2019-03-13T16:57:25.295Z,99787.89
2019-03-13T17:00:00.460Z,99787.03
2019-03-13T17:02:29.100Z,99781.17
2019-03-13T17:05:00.836Z,99785.67
2019-03-13T17:07:32.620Z,99780.75
2019-03-13T17:10:03.141Z,99784.23
2019-03-13T17:12:33.668Z,99783.85
2019-03-13T17:15:11.656Z,99776.67
2019-03-13T17:17:43.672Z,99772.59
2019-03-13T17:20:43.242Z,99782.23
2019-03-13T17:23:15.973Z,99776.38
2019-03-13T17:25:47.778Z,99775.33
2019-03-13T17:28:21.815Z,99774.23
2019-03-13T17:30:52.560Z,99774.13
2019-03-13T17:33:23.149Z,99771.68
2019-03-13T17:35:54.520Z,99776.95
2019-03-13T17:38:25.206Z,99772.06
2019-03-13T17:40:55.585Z,99773.85
2019-03-13T17:43:38.539Z,99775.64
2019-03-13T17:45:58.216Z,99762.45
2019-03-13T17:48:30.643Z,99772.65
2019-03-13T17:51:03.082Z,99769.16
2019-03-13T17:53:35.802Z,99764.73
2019-03-13T17:56:08.158Z,99771.33
2019-03-13T17:58:40.511Z,99768.23
2019-03-13T18:01:13.139Z,99773.00
2019-03-13T18:03:43.716Z,99774.12
2019-03-13T18:06:15.586Z,99767.10
2019-03-13T18:08:46.181Z,99770.16
2019-03-13T18:11:17.851Z,99766.91
2019-03-13T18:13:49.974Z,99765.59
2019-03-13T18:16:22.059Z,99768.30
2019-03-13T18:18:52.632Z,99764.66
2019-03-13T18:21:23.190Z,99760.53
2019-03-13T18:23:54.599Z,99758.41
2019-03-13T18:26:27.164Z,99762.75
2019-03-13T18:28:59.797Z,99749.02
2019-03-13T18:31:30.172Z,99747.35
2019-03-13T18:34:02.711Z,99745.95
2019-03-13T18:36:39.819Z,99746.03
2019-03-13T18:39:11.279Z,99746.42
2019-03-13T18:41:43.915Z,99743.59
2019-03-13T18:44:15.428Z,99744.91
2019-03-13T18:46:47.388Z,99739.63
2019-03-13T18:49:19.139Z,99735.55
2019-03-13T18:51:52.750Z,99731.48
2019-03-13T18:54:25.997Z,99733.66
2019-03-13T18:56:56.493Z,99736.71
2019-03-13T18:59:31.058Z,99736.17
2019-03-13T19:02:01.442Z,99738.73
2019-03-13T19:04:33.572Z,99730.39
2019-03-13T19:07:04.144Z,99730.39
2019-03-13T19:09:34.516Z,99728.14
2019-03-13T19:12:05.025Z,99725.13
2019-03-13T19:14:36.204Z,99720.81
2019-03-13T19:17:06.699Z,99726.44
2019-03-13T19:19:38.184Z,99718.60
2019-03-13T19:22:09.608Z,99717.17
2019-03-13T19:24:50.511Z,99714.11
2019-03-13T19:27:21.097Z,99706.16
2019-03-13T19:29:51.619Z,99709.45
2019-03-13T19:32:22.238Z,99703.28
2019-03-13T19:34:52.717Z,99704.64
2019-03-13T19:37:27.948Z,99697.00
2019-03-13T19:39:57.757Z,99700.10
2019-03-13T19:42:29.551Z,99703.13
2019-03-13T19:45:01.793Z,99695.56
2019-03-13T19:47:32.739Z,99692.08
2019-03-13T19:50:03.311Z,99682.38
2019-03-13T19:52:36.030Z,99681.45
2019-03-13T19:55:12.093Z,99677.96
2019-03-13T19:57:44.370Z,99678.38
2019-03-13T20:00:26.454Z,99675.75
2019-03-13T20:03:02.424Z,99673.46
2019-03-13T20:05:44.873Z,99675.20
2019-03-13T20:08:13.657Z,99676.52
2019-03-13T20:10:43.133Z,99669.94
2019-03-13T20:13:16.519Z,99663.77
2019-03-13T20:15:48.600Z,99665.09
2019-03-13T20:18:19.080Z,99669.58
2019-03-13T20:20:52.104Z,99667.77
2019-03-13T20:23:22.530Z,99662.88
2019-03-13T20:25:53.110Z,99663.69
2019-03-13T20:28:23.938Z,99658.54
2019-03-13T20:30:54.286Z,99657.72
2019-03-13T20:33:25.901Z,99661.13
2019-03-13T20:35:56.419Z,99653.77
2019-03-13T20:38:27.877Z,99648.84
2019-03-13T20:40:58.437Z,99643.03
2019-03-13T20:43:29.241Z,99643.53
2019-03-13T20:45:59.771Z,99639.62
2019-03-13T20:48:30.316Z,99638.89
2019-03-13T20:51:00.828Z,99638.66
2019-03-13T20:53:32.972Z,99633.38
2019-03-13T20:56:03.462Z,99635.09
2019-03-13T20:58:37.796Z,99637.77
2019-03-13T21:01:16.818Z,99632.92
2019-03-13T21:03:47.335Z,99638.57
2019-03-13T21:06:17.880Z,99627.06
2019-03-13T21:08:54.319Z,99621.79
2019-03-13T21:11:24.413Z,99617.84
2019-03-13T21:13:54.934Z,99619.50
2019-03-13T21:16:25.484Z,99622.14
2019-03-13T21:18:56.049Z,99617.25
2019-03-13T21:21:26.534Z,99605.28
2019-03-13T21:23:57.058Z,99608.27
2019-03-13T21:26:27.620Z,99606.36
2019-03-13T21:28:58.413Z,99597.52
2019-03-13T21:31:28.675Z,99606.79
2019-03-13T21:33:59.468Z,99604.45
2019-03-13T21:36:30.951Z,99590.44
2019-03-13T21:39:01.479Z,99598.22
2019-03-13T21:41:36.012Z,99590.86
2019-03-13T21:44:07.460Z,99595.23
2019-03-13T21:46:37.985Z,99592.95
2019-03-13T21:49:08.769Z,99588.19
2019-03-13T21:51:39.345Z,99584.23
2019-03-13T21:54:09.880Z,99589.50
2019-03-13T21:56:40.442Z,99596.56
2019-03-13T21:59:12.161Z,99592.64
2019-03-13T22:01:43.615Z,99589.62
2019-03-13T22:04:23.682Z,99586.98
2019-03-13T22:06:47.423Z,99583.50
2019-03-13T22:09:19.481Z,99581.45
2019-03-13T22:11:50.340Z,99586.29
2019-03-13T22:14:20.852Z,99578.70
2019-03-13T22:16:53.248Z,99584.97
2019-03-13T22:19:24.669Z,99568.70
2019-03-13T22:21:55.214Z,99566.06
2019-03-13T22:24:26.658Z,99574.97
2019-03-13T22:26:58.117Z,99572.77
2019-03-13T22:29:29.548Z,99567.42
2019-03-13T22:32:01.649Z,99562.15
2019-03-13T22:34:32.187Z,99569.35
2019-03-13T22:37:03.923Z,99561.76
2019-03-13T22:39:34.441Z,99561.38
2019-03-13T22:42:04.965Z,99561.22
2019-03-13T22:44:35.509Z,99556.38
2019-03-13T22:47:08.225Z,99548.89
2019-03-13T22:49:38.708Z,99550.14
2019-03-13T22:52:09.285Z,99545.77
2019-03-13T22:54:39.795Z,99549.67
2019-03-13T22:57:12.166Z,99548.23
2019-03-13T22:59:42.703Z,99538.13
2019-03-13T23:02:13.227Z,99543.86
2019-03-13T23:04:43.735Z,99526.63
2019-03-13T23:07:14.285Z,99531.42
2019-03-13T23:09:44.787Z,99520.66
2019-03-13T23:12:15.327Z,99520.66
2019-03-13T23:14:46.772Z,99519.34
2019-03-13T23:17:18.239Z,99527.13
2019-03-13T23:19:49.667Z,99522.36
2019-03-13T23:22:19.926Z,99519.30
2019-03-13T23:24:51.361Z,99520.55
2019-03-13T23:27:21.898Z,99516.98
2019-03-13T23:29:52.409Z,99505.86
2019-03-13T23:32:23.870Z,99521.66
2019-03-13T23:34:54.386Z,99517.64
2019-03-13T23:37:25.839Z,99517.21
2019-03-13T23:39:56.366Z,99511.44
2019-03-13T23:42:27.847Z,99517.09
2019-03-13T23:44:59.265Z,99511.36
2019-03-13T23:47:29.801Z,99513.64
2019-03-13T23:50:00.483Z,99515.63
2019-03-13T23:52:32.403Z,99506.36
2019-03-13T23:55:02.922Z,99503.00
2019-03-13T23:57:33.450Z,99500.25
